createdAt,value
2019-03-18T00:00:44.266Z,1.98
2019-03-18T00:05:51.190Z,2.13
2019-03-18T00:08:21.619Z,2.20
2019-03-18T00:10:52.054Z,2.25
2019-03-18T00:13:22.392Z,2.23
2019-03-18T00:15:55.083Z,2.20
2019-03-18T00:18:25.524Z,2.20
2019-03-18T00:20:56.875Z,2.26
2019-03-18T00:23:27.825Z,2.25
2019-03-18T00:25:58.168Z,2.19
2019-03-18T00:28:29.812Z,2.20
2019-03-18T00:31:00.395Z,2.19
2019-03-18T00:33:31.027Z,2.19
2019-03-18T00:36:03.350Z,2.17
2019-03-18T00:38:34.620Z,2.13
2019-03-18T00:41:05.375Z,2.09
2019-03-18T00:43:36.009Z,2.09
2019-03-18T00:46:06.591Z,2.09
2019-03-18T00:48:36.871Z,2.21
2019-03-18T00:51:07.432Z,2.11
2019-03-18T00:53:37.999Z,2.06
2019-03-18T00:56:08.643Z,2.10
2019-03-18T00:58:40.393Z,2.09
2019-03-18T01:01:10.792Z,2.13
2019-03-18T01:03:41.427Z,2.13
2019-03-18T01:06:11.683Z,2.17
2019-03-18T01:08:43.655Z,2.20
2019-03-18T01:11:13.950Z,2.27
2019-03-18T01:13:46.314Z,2.29
2019-03-18T01:16:16.934Z,2.30
2019-03-18T01:18:47.299Z,2.25
2019-03-18T01:21:17.954Z,2.15
2019-03-18T01:23:48.273Z,2.17
2019-03-18T01:26:18.916Z,2.21
2019-03-18T01:28:49.255Z,2.21
2019-03-18T01:31:19.566Z,2.21
2019-03-18T01:33:49.829Z,2.17
2019-03-18T01:36:20.223Z,2.19
2019-03-18T01:38:50.631Z,2.26
2019-03-18T01:41:21.261Z,2.28
2019-03-18T01:43:51.664Z,2.32
2019-03-18T01:46:22.304Z,2.33
2019-03-18T01:48:52.713Z,2.33
2019-03-18T01:51:24.038Z,2.34
2019-03-18T01:53:54.383Z,2.41
2019-03-18T01:56:26.824Z,2.58
2019-03-18T01:58:57.089Z,2.68
2019-03-18T02:01:28.444Z,2.64
2019-03-18T02:03:58.682Z,2.57
2019-03-18T02:06:29.977Z,2.51
2019-03-18T02:09:00.289Z,2.51
2019-03-18T02:11:30.586Z,2.49
2019-03-18T02:14:01.116Z,2.50
2019-03-18T02:16:31.387Z,2.53
2019-03-18T02:19:01.894Z,2.56
2019-03-18T02:21:32.485Z,2.59
2019-03-18T02:24:03.113Z,2.72
2019-03-18T02:26:33.687Z,2.82
2019-03-18T02:29:04.298Z,2.89
2019-03-18T02:31:34.623Z,3.04
2019-03-18T02:34:05.114Z,3.14
2019-03-18T02:36:35.610Z,3.27
2019-03-18T02:39:08.539Z,3.39
2019-03-18T02:41:38.839Z,3.42
2019-03-18T02:44:10.936Z,3.51
2019-03-18T02:46:41.203Z,3.57
2019-03-18T02:49:12.230Z,3.62
2019-03-18T02:51:42.548Z,3.66
2019-03-18T02:54:12.802Z,3.67
2019-03-18T02:56:43.152Z,3.62
2019-03-18T02:59:13.380Z,3.53
2019-03-18T03:01:43.706Z,3.40
2019-03-18T03:04:14.028Z,3.24
2019-03-18T03:06:44.747Z,3.10
2019-03-18T03:09:14.988Z,3.02
2019-03-18T03:11:45.577Z,3.02
2019-03-18T03:14:15.837Z,2.96
2019-03-18T03:16:46.428Z,2.93
2019-03-18T03:19:16.792Z,2.93
2019-03-18T03:21:49.836Z,2.94
2019-03-18T03:24:20.117Z,2.96
2019-03-18T03:26:53.451Z,2.95
2019-03-18T03:29:23.777Z,2.94
2019-03-18T03:31:54.117Z,2.95
2019-03-18T03:34:24.409Z,2.95
2019-03-18T03:36:54.941Z,2.95
2019-03-18T03:39:25.238Z,2.99
2019-03-18T03:41:55.826Z,3.02
2019-03-18T03:44:26.107Z,3.05
2019-03-18T03:46:56.600Z,3.05
2019-03-18T03:49:26.917Z,3.07
2019-03-18T03:51:57.238Z,3.07
2019-03-18T03:54:27.804Z,3.01
2019-03-18T03:56:58.085Z,3.01
2019-03-18T03:59:30.652Z,3.06
2019-03-18T04:02:01.157Z,3.11
2019-03-18T04:04:31.720Z,3.17
2019-03-18T04:07:01.986Z,3.21
2019-03-18T04:09:32.607Z,3.20
2019-03-18T04:12:02.845Z,3.11
2019-03-18T04:14:35.837Z,3.03
2019-03-18T04:17:06.247Z,3.11
2019-03-18T04:19:36.759Z,3.17
2019-03-18T04:22:07.177Z,3.17
2019-03-18T04:24:38.191Z,3.13
2019-03-18T04:27:08.453Z,3.08
2019-03-18T04:29:40.586Z,3.03
2019-03-18T04:32:11.008Z,2.90
2019-03-18T04:34:41.277Z,2.83
2019-03-18T04:37:11.729Z,2.68
2019-03-18T04:39:41.993Z,2.60
2019-03-18T04:42:13.407Z,2.48
2019-03-18T04:44:43.685Z,2.45
2019-03-18T04:47:14.756Z,2.37
2019-03-18T04:49:46.064Z,2.29
2019-03-18T04:52:16.436Z,2.26
2019-03-18T04:54:47.741Z,2.16
2019-03-18T04:57:18.062Z,2.11
2019-03-18T04:59:48.399Z,2.18
2019-03-18T05:02:18.972Z,2.26
2019-03-18T05:04:49.561Z,2.29
2019-03-18T05:07:20.136Z,2.31
2019-03-18T05:09:50.746Z,2.24
2019-03-18T05:12:21.353Z,2.24
2019-03-18T05:14:51.633Z,2.22
2019-03-18T05:17:26.882Z,2.43
2019-03-18T05:19:56.305Z,2.43
2019-03-18T05:22:27.932Z,2.57
2019-03-18T05:24:58.282Z,2.75
2019-03-18T05:27:28.606Z,2.88
2019-03-18T05:29:59.144Z,3.00
2019-03-18T05:32:29.463Z,3.02
2019-03-18T05:35:00.054Z,3.01
2019-03-18T05:37:30.621Z,2.94
2019-03-18T05:40:01.000Z,2.88
2019-03-18T05:45:08.316Z,2.65
2019-03-18T05:47:40.106Z,2.61
2019-03-18T05:50:10.559Z,2.50
2019-03-18T05:52:40.858Z,2.47
2019-03-18T05:55:12.997Z,2.44
2019-03-18T05:57:43.479Z,2.39
2019-03-18T06:00:13.788Z,2.40
2019-03-18T06:02:46.829Z,2.46
2019-03-18T06:05:16.063Z,2.50
2019-03-18T06:07:46.657Z,2.52
2019-03-18T06:10:19.159Z,2.54
2019-03-18T06:12:49.433Z,2.60
2019-03-18T06:15:21.140Z,2.71
2019-03-18T06:17:53.087Z,2.74
2019-03-18T06:20:24.255Z,2.93
2019-03-18T06:22:56.041Z,3.24
2019-03-18T06:25:26.279Z,3.41
2019-03-18T06:27:56.544Z,3.43
2019-03-18T06:30:26.826Z,3.22
2019-03-18T06:32:58.348Z,3.08
2019-03-18T06:35:35.091Z,2.97
2019-03-18T06:38:05.596Z,2.93
2019-03-18T06:40:38.124Z,3.05
2019-03-18T06:43:08.493Z,3.36
2019-03-18T06:45:39.204Z,3.69
2019-03-18T06:48:09.717Z,4.08
2019-03-18T06:50:40.027Z,4.44
2019-03-18T06:53:11.874Z,4.56
2019-03-18T06:55:42.326Z,4.48
2019-03-18T06:58:12.704Z,4.44
2019-03-18T07:00:42.993Z,4.44
2019-03-18T07:03:13.941Z,4.45
2019-03-18T07:05:46.205Z,4.47
2019-03-18T07:08:16.319Z,4.51
2019-03-18T07:10:46.637Z,4.79
2019-03-18T07:13:17.204Z,6.01
2019-03-18T07:15:47.544Z,7.38
2019-03-18T07:18:18.925Z,7.20
2019-03-18T07:20:49.476Z,7.42
2019-03-18T07:23:20.947Z,7.98
2019-03-18T07:25:51.336Z,7.82
2019-03-18T07:28:23.196Z,6.89
2019-03-18T07:30:53.683Z,8.30
2019-03-18T07:33:24.610Z,11.10
2019-03-18T07:35:54.924Z,12.41
2019-03-18T07:38:26.746Z,13.46
2019-03-18T07:40:57.065Z,15.28
2019-03-18T07:43:27.351Z,16.66
2019-03-18T07:45:58.077Z,17.85
2019-03-18T07:48:31.378Z,19.27
2019-03-18T07:51:00.751Z,20.32
2019-03-18T07:53:31.042Z,18.94
2019-03-18T07:56:01.728Z,18.09
2019-03-18T07:58:31.982Z,17.36
2019-03-18T08:01:02.568Z,15.06
2019-03-18T08:03:32.927Z,14.46
2019-03-18T08:06:03.534Z,12.45
2019-03-18T08:08:33.936Z,10.83
2019-03-18T08:11:04.995Z,9.76
2019-03-18T08:13:35.570Z,8.89
2019-03-18T08:16:06.127Z,8.36
2019-03-18T08:18:43.297Z,8.02
2019-03-18T08:21:10.277Z,7.82
2019-03-18T08:23:40.572Z,7.88
2019-03-18T08:26:13.944Z,8.01
2019-03-18T08:28:44.703Z,8.23
2019-03-18T08:31:15.004Z,9.87
2019-03-18T08:33:45.324Z,15.21
2019-03-18T08:36:15.643Z,19.24
2019-03-18T08:38:45.941Z,20.11
2019-03-18T08:41:16.261Z,17.66
2019-03-18T08:43:46.873Z,15.99
2019-03-18T08:46:17.759Z,17.84
2019-03-18T08:48:55.647Z,20.53
2019-03-18T08:51:20.681Z,22.63
2019-03-18T08:53:51.033Z,22.84
2019-03-18T08:56:21.623Z,23.20
2019-03-18T08:58:51.978Z,23.50
2019-03-18T09:01:22.549Z,25.74
2019-03-18T09:03:53.080Z,27.35
2019-03-18T09:06:23.825Z,24.75
2019-03-18T09:08:54.300Z,25.81
2019-03-18T09:11:24.963Z,26.20
2019-03-18T09:13:58.087Z,26.42
2019-03-18T09:16:28.723Z,26.45
2019-03-18T09:19:08.482Z,27.08
2019-03-18T09:21:32.916Z,28.35
2019-03-18T09:24:05.107Z,30.14
2019-03-18T09:26:36.034Z,29.38
2019-03-18T09:29:06.469Z,24.12
2019-03-18T09:31:37.068Z,24.12
2019-03-18T09:34:11.117Z,21.75
2019-03-18T09:36:42.783Z,19.55
2019-03-18T09:39:13.434Z,22.41
2019-03-18T09:41:43.998Z,24.57
2019-03-18T09:44:14.979Z,27.14
2019-03-18T09:46:45.579Z,24.82
2019-03-18T09:49:21.391Z,24.47
2019-03-18T09:51:48.614Z,20.97
2019-03-18T09:54:19.180Z,19.02
2019-03-18T09:56:49.541Z,19.02
2019-03-18T09:59:20.203Z,16.29
2019-03-18T10:01:50.863Z,16.29
2019-03-18T10:04:21.439Z,14.89
2019-03-18T10:06:51.750Z,13.45
2019-03-18T10:09:22.446Z,12.14
2019-03-18T10:11:52.870Z,11.59
2019-03-18T10:14:23.165Z,11.20
2019-03-18T10:16:53.566Z,11.10
2019-03-18T10:19:33.019Z,11.04
2019-03-18T10:21:56.022Z,11.27
2019-03-18T10:24:26.458Z,10.94
2019-03-18T10:26:57.180Z,10.20
2019-03-18T10:29:27.505Z,9.43
2019-03-18T10:31:59.777Z,9.74
2019-03-18T10:34:30.126Z,10.60
2019-03-18T10:37:00.466Z,11.53
2019-03-18T10:39:30.880Z,16.38
2019-03-18T10:42:04.157Z,19.75
2019-03-18T10:44:34.435Z,22.48
2019-03-18T10:47:04.902Z,25.42
2019-03-18T10:49:45.613Z,26.49
2019-03-18T10:52:07.353Z,24.97
2019-03-18T10:54:37.691Z,25.59
2019-03-18T10:57:08.335Z,25.98
2019-03-18T10:59:38.649Z,24.82
2019-03-18T11:02:09.357Z,23.27
2019-03-18T11:04:40.212Z,20.69
2019-03-18T11:07:10.808Z,19.17
2019-03-18T11:09:41.082Z,17.69
2019-03-18T11:12:11.879Z,15.20
2019-03-18T11:14:44.338Z,14.29
2019-03-18T11:17:14.927Z,12.72
2019-03-18T11:19:57.866Z,12.72
2019-03-18T11:22:18.823Z,11.88
2019-03-18T11:24:49.843Z,11.68
2019-03-18T11:27:20.179Z,11.66
2019-03-18T11:29:50.745Z,11.77
2019-03-18T11:32:21.144Z,11.75
2019-03-18T11:34:51.732Z,11.80
2019-03-18T11:37:22.068Z,11.63
2019-03-18T11:39:52.667Z,11.45
2019-03-18T11:42:23.005Z,11.22
2019-03-18T11:44:53.397Z,11.06
2019-03-18T11:47:23.760Z,10.76
2019-03-18T11:49:54.063Z,10.82
2019-03-18T11:52:24.891Z,10.82
2019-03-18T11:54:55.317Z,10.82
2019-03-18T11:57:25.921Z,10.84
2019-03-18T11:59:56.380Z,10.94
2019-03-18T12:02:27.958Z,11.19
2019-03-18T12:04:58.438Z,11.48
2019-03-18T12:07:29.126Z,11.48
2019-03-18T12:09:59.494Z,11.65
2019-03-18T12:12:31.815Z,11.94
2019-03-18T12:15:02.309Z,11.94
2019-03-18T12:17:33.227Z,12.17
2019-03-18T12:20:03.622Z,12.34
2019-03-18T12:22:35.593Z,12.31
2019-03-18T12:25:06.316Z,12.45
2019-03-18T12:27:37.121Z,12.31
2019-03-18T12:30:10.567Z,12.19
2019-03-18T12:32:42.317Z,12.26
2019-03-18T12:35:12.685Z,12.05
2019-03-18T12:37:44.456Z,12.15
2019-03-18T12:40:15.214Z,12.25
2019-03-18T12:42:45.602Z,11.69
2019-03-18T12:45:16.241Z,11.51
2019-03-18T12:47:47.764Z,11.00
2019-03-18T12:50:18.186Z,11.00
2019-03-18T12:52:48.514Z,10.84
2019-03-18T12:55:20.059Z,10.71
2019-03-18T12:57:50.424Z,10.40
2019-03-18T13:00:21.895Z,10.13
2019-03-18T13:02:52.572Z,10.36
2019-03-18T13:05:23.142Z,10.84
2019-03-18T13:07:53.838Z,11.25
2019-03-18T13:10:24.449Z,11.13
2019-03-18T13:12:55.729Z,11.02
2019-03-18T13:15:26.562Z,10.77
2019-03-18T13:17:56.870Z,10.66
2019-03-18T13:20:28.528Z,10.40
2019-03-18T13:22:58.803Z,10.21
2019-03-18T13:25:29.921Z,10.20
2019-03-18T13:28:00.236Z,10.11
2019-03-18T13:30:30.604Z,9.97
2019-03-18T13:33:01.128Z,10.11
2019-03-18T13:35:31.545Z,10.19
2019-03-18T13:38:02.143Z,10.26
2019-03-18T13:40:32.717Z,10.28
2019-03-18T13:43:03.898Z,10.46
2019-03-18T13:45:34.648Z,10.40
2019-03-18T13:48:05.088Z,10.34
2019-03-18T13:50:37.245Z,10.47
2019-03-18T13:53:07.673Z,10.44
2019-03-18T13:55:38.239Z,10.15
2019-03-18T13:58:08.685Z,9.87
2019-03-18T14:00:39.011Z,9.98
2019-03-18T14:03:09.349Z,9.95
2019-03-18T14:05:39.630Z,9.79
2019-03-18T14:08:11.955Z,9.63
2019-03-18T14:10:42.324Z,9.36
2019-03-18T14:13:14.470Z,9.02
2019-03-18T14:15:44.873Z,9.02
2019-03-18T14:18:17.160Z,9.07
2019-03-18T14:20:47.515Z,9.29
2019-03-18T14:23:19.838Z,9.49
2019-03-18T14:25:50.133Z,9.36
2019-03-18T14:28:21.935Z,9.06
2019-03-18T14:30:52.566Z,8.84
2019-03-18T14:33:23.891Z,8.76
2019-03-18T14:35:54.291Z,8.73
2019-03-18T14:38:24.858Z,8.71
2019-03-18T14:40:55.449Z,8.72
2019-03-18T14:43:25.771Z,8.80
2019-03-18T14:45:56.044Z,8.94
2019-03-18T14:48:26.327Z,9.16
2019-03-18T14:50:56.701Z,9.35
2019-03-18T14:53:27.944Z,9.73
2019-03-18T14:55:58.579Z,10.03
2019-03-18T14:58:28.922Z,10.55
2019-03-18T15:00:59.521Z,11.00
2019-03-18T15:03:30.037Z,11.15
2019-03-18T15:06:01.084Z,11.00
2019-03-18T15:08:31.411Z,10.75
2019-03-18T15:11:03.056Z,10.71
2019-03-18T15:13:34.450Z,10.77
2019-03-18T15:16:06.252Z,10.80
2019-03-18T15:18:36.800Z,10.57
2019-03-18T15:21:08.255Z,9.94
2019-03-18T15:23:38.548Z,9.62
2019-03-18T15:26:08.920Z,9.45
2019-03-18T15:28:39.290Z,9.31
2019-03-18T15:31:13.579Z,9.20
2019-03-18T15:33:43.887Z,9.15
2019-03-18T15:36:15.546Z,9.27
2019-03-18T15:38:46.113Z,9.33
2019-03-18T15:41:16.486Z,9.54
2019-03-18T15:43:47.075Z,9.80
2019-03-18T15:46:17.447Z,9.98
2019-03-18T15:48:48.030Z,9.96
2019-03-18T15:51:18.314Z,9.82
2019-03-18T15:53:48.898Z,9.50
2019-03-18T15:56:19.230Z,9.20
2019-03-18T15:58:50.358Z,8.91
2019-03-18T16:01:20.683Z,8.81
2019-03-18T16:03:52.186Z,8.84
2019-03-18T16:06:22.642Z,8.87
2019-03-18T16:08:53.871Z,8.90
2019-03-18T16:11:24.214Z,8.90
2019-03-18T16:13:57.232Z,8.83
2019-03-18T16:16:27.550Z,8.80
2019-03-18T16:18:57.996Z,8.79
2019-03-18T16:21:28.627Z,8.78
2019-03-18T16:23:58.984Z,8.80
2019-03-18T16:26:29.840Z,8.82
2019-03-18T16:29:00.163Z,8.86
2019-03-18T16:31:30.480Z,8.82
2019-03-18T16:34:01.045Z,8.66
2019-03-18T16:36:31.616Z,8.46
2019-03-18T16:39:01.892Z,8.27
2019-03-18T16:41:33.863Z,8.16
2019-03-18T16:44:04.479Z,8.10
2019-03-18T16:46:35.018Z,8.09
2019-03-18T16:49:05.702Z,8.11
2019-03-18T16:51:36.154Z,8.10
2019-03-18T16:54:06.532Z,8.07
2019-03-18T16:56:37.151Z,8.01
2019-03-18T16:59:07.454Z,7.89
2019-03-18T17:01:37.774Z,7.74
2019-03-18T17:04:08.255Z,7.57
2019-03-18T17:06:39.590Z,7.35
2019-03-18T17:09:09.939Z,7.35
2019-03-18T17:11:40.655Z,7.13
2019-03-18T17:14:11.298Z,7.13
2019-03-18T17:16:42.944Z,7.09
2019-03-18T17:19:15.261Z,7.00
2019-03-18T17:21:45.609Z,6.91
2019-03-18T17:24:16.236Z,6.88
2019-03-18T17:26:46.549Z,6.80
2019-03-18T17:29:18.014Z,6.74
2019-03-18T17:31:49.523Z,6.73
2019-03-18T17:34:20.148Z,6.78
2019-03-18T17:36:50.775Z,6.79
2019-03-18T17:39:22.359Z,6.70
2019-03-18T17:41:54.108Z,6.59
2019-03-18T17:44:24.691Z,6.45
2019-03-18T17:46:55.041Z,6.46
2019-03-18T17:49:25.427Z,6.35
2019-03-18T17:51:56.062Z,6.24
2019-03-18T17:54:26.801Z,6.02
2019-03-18T17:57:06.695Z,6.02
2019-03-18T17:59:31.587Z,5.86
2019-03-18T18:02:01.925Z,5.72
2019-03-18T18:04:34.899Z,5.55
2019-03-18T18:07:05.372Z,5.43
2019-03-18T18:09:35.906Z,5.33
2019-03-18T18:12:06.221Z,5.27
2019-03-18T18:14:36.922Z,5.23
2019-03-18T18:17:07.209Z,5.23
2019-03-18T18:19:37.552Z,5.30
2019-03-18T18:22:08.173Z,5.14
2019-03-18T18:24:38.531Z,5.14
2019-03-18T18:27:08.839Z,5.18
2019-03-18T18:29:39.336Z,5.09
2019-03-18T18:32:10.051Z,5.05
2019-03-18T18:34:40.360Z,4.92
2019-03-18T18:37:12.218Z,4.84
2019-03-18T18:39:42.577Z,4.95
2019-03-18T18:42:13.357Z,4.87
2019-03-18T18:44:43.717Z,4.92
2019-03-18T18:47:14.024Z,4.93
2019-03-18T18:49:49.687Z,4.78
2019-03-18T18:52:20.016Z,4.65
2019-03-18T18:54:50.943Z,4.70
2019-03-18T18:57:21.488Z,4.67
2019-03-18T18:59:53.833Z,4.77
2019-03-18T19:02:24.182Z,4.79
2019-03-18T19:04:54.710Z,4.81
2019-03-18T19:07:26.297Z,4.80
2019-03-18T19:09:56.805Z,4.74
2019-03-18T19:12:27.200Z,4.70
2019-03-18T19:14:57.598Z,4.65
2019-03-18T19:17:28.189Z,4.60
2019-03-18T19:19:58.987Z,4.66
2019-03-18T19:22:29.274Z,4.70
2019-03-18T19:24:59.686Z,4.67
2019-03-18T19:27:30.040Z,4.47
2019-03-18T19:30:00.689Z,4.40
2019-03-18T19:32:31.119Z,4.44
2019-03-18T19:35:01.543Z,4.44
2019-03-18T19:37:31.916Z,4.30
2019-03-18T19:40:02.282Z,4.18
2019-03-18T19:42:32.842Z,4.04
2019-03-18T19:45:05.838Z,4.09
2019-03-18T19:47:36.218Z,4.07
2019-03-18T19:50:10.114Z,4.11
2019-03-18T19:52:40.789Z,4.13
2019-03-18T19:55:12.007Z,4.01
2019-03-18T19:57:43.336Z,3.92
2019-03-18T20:00:16.591Z,3.91
2019-03-18T20:02:47.150Z,3.84
2019-03-18T20:05:20.349Z,3.68
2019-03-18T20:07:50.738Z,3.68
2019-03-18T20:10:21.036Z,3.61
2019-03-18T20:12:51.356Z,3.61
2019-03-18T20:15:21.686Z,3.49
2019-03-18T20:17:52.038Z,3.47
2019-03-18T20:20:23.420Z,3.37
2019-03-18T20:22:53.870Z,3.49
2019-03-18T20:25:24.193Z,3.51
2019-03-18T20:27:55.082Z,3.48
2019-03-18T20:30:25.567Z,3.43
2019-03-18T20:32:56.150Z,3.47
2019-03-18T20:35:26.471Z,3.51
2019-03-18T20:37:58.187Z,3.55
2019-03-18T20:40:28.841Z,3.55
2019-03-18T20:43:01.886Z,3.47
2019-03-18T20:45:32.264Z,3.48
2019-03-18T20:48:02.744Z,3.42
2019-03-18T20:50:33.071Z,3.45
2019-03-18T20:53:03.695Z,3.33
2019-03-18T20:55:34.129Z,3.14
2019-03-18T20:58:05.305Z,3.10
2019-03-18T21:00:38.426Z,3.00
2019-03-18T21:03:11.333Z,2.94
2019-03-18T21:05:41.666Z,2.88
2019-03-18T21:08:12.858Z,2.89
2019-03-18T21:10:43.236Z,2.83
2019-03-18T21:13:16.944Z,2.80
2019-03-18T21:15:47.908Z,2.72
2019-03-18T21:18:19.408Z,2.65
2019-03-18T21:20:49.839Z,2.59
2019-03-18T21:23:21.743Z,2.54
2019-03-18T21:25:52.035Z,2.60
2019-03-18T21:28:22.893Z,2.70
2019-03-18T21:30:53.210Z,2.73
2019-03-18T21:33:23.790Z,2.73
2019-03-18T21:35:55.938Z,2.73
2019-03-18T21:38:26.300Z,2.57
2019-03-18T21:40:56.627Z,2.55
2019-03-18T21:43:27.039Z,2.44
2019-03-18T21:45:57.479Z,2.47
2019-03-18T21:48:27.760Z,2.46
2019-03-18T21:50:58.421Z,2.29
2019-03-18T21:53:28.740Z,2.27
2019-03-18T21:55:59.150Z,2.17
2019-03-18T21:58:29.437Z,2.06
2019-03-18T22:01:00.061Z,1.96
2019-03-18T22:03:30.363Z,1.96
2019-03-18T22:06:01.359Z,2.11
2019-03-18T22:08:31.642Z,2.06
2019-03-18T22:11:03.016Z,1.97
2019-03-18T22:13:34.449Z,1.87
2019-03-18T22:16:05.657Z,1.87
2019-03-18T22:18:36.026Z,1.74
2019-03-18T22:21:07.486Z,1.66
2019-03-18T22:23:37.793Z,1.76
2019-03-18T22:26:08.388Z,1.82
2019-03-18T22:28:39.009Z,1.95
2019-03-18T22:31:09.314Z,2.05
2019-03-18T22:33:39.943Z,2.01
2019-03-18T22:36:10.298Z,1.97
2019-03-18T22:38:40.874Z,1.98
2019-03-18T22:41:12.516Z,1.97
2019-03-18T22:43:43.126Z,1.69
2019-03-18T22:46:13.698Z,1.69
2019-03-18T22:48:44.332Z,1.58
2019-03-18T22:51:14.658Z,1.48
2019-03-18T22:53:45.343Z,1.39
2019-03-18T22:56:15.850Z,1.34
2019-03-18T22:58:46.532Z,1.26
2019-03-18T23:01:19.489Z,1.25
2019-03-18T23:03:52.171Z,1.18
2019-03-18T23:06:22.751Z,1.14
2019-03-18T23:08:56.454Z,1.06
2019-03-18T23:11:27.029Z,0.96
2019-03-18T23:13:57.742Z,0.89
2019-03-18T23:16:28.019Z,0.85
2019-03-18T23:18:58.985Z,0.88
2019-03-18T23:21:29.264Z,0.93
2019-03-18T23:23:59.604Z,0.95
2019-03-18T23:26:30.221Z,0.91
2019-03-18T23:29:00.625Z,0.82
2019-03-18T23:31:30.946Z,0.74
2019-03-18T23:34:01.300Z,0.63
2019-03-18T23:36:31.615Z,0.54
2019-03-18T23:39:01.922Z,0.45
2019-03-18T23:41:33.573Z,0.45
2019-03-18T23:44:03.962Z,0.51
2019-03-18T23:46:34.595Z,0.50
2019-03-18T23:49:05.087Z,0.45
2019-03-18T23:51:35.695Z,0.41
2019-03-18T23:54:06.160Z,0.36
2019-03-18T23:56:37.050Z,0.38
2019-03-18T23:59:07.358Z,0.38
